sensor_id;sensor_type;location;lat;lon;timestamp;P1;durP1;ratioP1;P2;durP2;ratioP2
48847;SDS011;36611;51.638;5.784;2023-02-28T00:00:49;3.13;;;1.50;;
48847;SDS011;36611;51.638;5.784;2023-02-28T00:03:16;2.15;;;1.33;;
48847;SDS011;36611;51.638;5.784;2023-02-28T00:05:42;2.90;;;1.50;;
48847;SDS011;36611;51.638;5.784;2023-02-28T00:08:09;1.88;;;1.50;;
48847;SDS011;36611;51.638;5.784;2023-02-28T00:10:36;2.38;;;1.40;;
48847;SDS011;36611;51.638;5.784;2023-02-28T00:13:03;2.17;;;1.48;;
48847;SDS011;36611;51.638;5.784;2023-02-28T00:15:32;1.48;;;1.23;;
48847;SDS011;36611;51.638;5.784;2023-02-28T00:17:59;1.70;;;1.23;;
48847;SDS011;36611;51.638;5.784;2023-02-28T00:20:26;2.05;;;1.58;;
48847;SDS011;36611;51.638;5.784;2023-02-28T00:22:53;2.28;;;1.35;;
48847;SDS011;36611;51.638;5.784;2023-02-28T00:25:22;2.25;;;1.42;;
48847;SDS011;36611;51.638;5.784;2023-02-28T00:27:50;1.30;;;1.20;;
48847;SDS011;36611;51.638;5.784;2023-02-28T00:30:21;1.63;;;1.40;;
48847;SDS011;36611;51.638;5.784;2023-02-28T00:32:50;1.50;;;1.40;;
48847;SDS011;36611;51.638;5.784;2023-02-28T00:35:16;2.00;;;1.70;;
48847;SDS011;36611;51.638;5.784;2023-02-28T00:37:43;1.42;;;1.33;;
48847;SDS011;36611;51.638;5.784;2023-02-28T00:40:10;2.00;;;1.30;;
48847;SDS011;36611;51.638;5.784;2023-02-28T00:42:38;2.22;;;1.50;;
48847;SDS011;36611;51.638;5.784;2023-02-28T00:45:06;1.50;;;1.25;;
48847;SDS011;36611;51.638;5.784;2023-02-28T00:47:36;2.35;;;1.60;;
48847;SDS011;36611;51.638;5.784;2023-02-28T00:50:03;1.90;;;1.42;;
48847;SDS011;36611;51.638;5.784;2023-02-28T00:52:31;2.95;;;1.52;;
48847;SDS011;36611;51.638;5.784;2023-02-28T00:54:57;1.55;;;1.42;;
48847;SDS011;36611;51.638;5.784;2023-02-28T00:57:24;1.58;;;1.40;;
48847;SDS011;36611;51.638;5.784;2023-02-28T00:59:50;1.50;;;1.40;;
48847;SDS011;36611;51.638;5.784;2023-02-28T01:02:17;2.67;;;1.30;;
48847;SDS011;36611;51.638;5.784;2023-02-28T01:04:46;1.80;;;1.30;;
48847;SDS011;36611;51.638;5.784;2023-02-28T01:07:13;1.58;;;1.40;;
48847;SDS011;36611;51.638;5.784;2023-02-28T01:09:41;1.77;;;1.38;;
48847;SDS011;36611;51.638;5.784;2023-02-28T01:12:08;2.85;;;1.40;;
48847;SDS011;36611;51.638;5.784;2023-02-28T01:14:35;2.33;;;1.17;;
48847;SDS011;36611;51.638;5.784;2023-02-28T01:17:02;1.80;;;1.40;;
48847;SDS011;36611;51.638;5.784;2023-02-28T01:19:30;1.50;;;1.30;;
48847;SDS011;36611;51.638;5.784;2023-02-28T01:21:59;2.20;;;1.45;;
48847;SDS011;36611;51.638;5.784;2023-02-28T01:24:27;2.50;;;1.75;;
48847;SDS011;36611;51.638;5.784;2023-02-28T01:26:53;1.40;;;1.30;;
48847;SDS011;36611;51.638;5.784;2023-02-28T01:29:20;2.22;;;1.75;;
48847;SDS011;36611;51.638;5.784;2023-02-28T01:31:46;1.40;;;1.30;;
48847;SDS011;36611;51.638;5.784;2023-02-28T01:34:13;2.10;;;1.40;;
48847;SDS011;36611;51.638;5.784;2023-02-28T01:36:39;1.80;;;1.40;;
48847;SDS011;36611;51.638;5.784;2023-02-28T01:39:06;1.50;;;1.40;;
48847;SDS011;36611;51.638;5.784;2023-02-28T01:41:34;1.50;;;1.40;;
48847;SDS011;36611;51.638;5.784;2023-02-28T01:44:02;1.58;;;1.40;;
48847;SDS011;36611;51.638;5.784;2023-02-28T01:46:48;1.80;;;1.45;;
48847;SDS011;36611;51.638;5.784;2023-02-28T01:49:15;1.60;;;1.30;;
48847;SDS011;36611;51.638;5.784;2023-02-28T01:51:45;2.13;;;1.38;;
48847;SDS011;36611;51.638;5.784;2023-02-28T01:54:21;1.83;;;1.50;;
48847;SDS011;36611;51.638;5.784;2023-02-28T01:56:55;2.85;;;1.45;;
48847;SDS011;36611;51.638;5.784;2023-02-28T01:59:34;1.95;;;1.50;;
48847;SDS011;36611;51.638;5.784;2023-02-28T02:02:06;1.88;;;1.40;;
48847;SDS011;36611;51.638;5.784;2023-02-28T02:04:36;1.50;;;1.33;;
48847;SDS011;36611;51.638;5.784;2023-02-28T02:07:06;1.40;;;1.20;;
48847;SDS011;36611;51.638;5.784;2023-02-28T02:09:33;1.40;;;1.30;;
48847;SDS011;36611;51.638;5.784;2023-02-28T02:12:00;2.58;;;1.52;;
48847;SDS011;36611;51.638;5.784;2023-02-28T02:20:14;1.83;;;1.30;;
48847;SDS011;36611;51.638;5.784;2023-02-28T02:25:32;1.27;;;1.17;;
48847;SDS011;36611;51.638;5.784;2023-02-28T02:31:46;1.90;;;1.65;;
48847;SDS011;36611;51.638;5.784;2023-02-28T02:37:10;1.60;;;1.25;;
48847;SDS011;36611;51.638;5.784;2023-02-28T02:42:21;1.70;;;1.23;;
48847;SDS011;36611;51.638;5.784;2023-02-28T02:45:01;1.85;;;1.35;;
48847;SDS011;36611;51.638;5.784;2023-02-28T02:47:33;2.20;;;1.50;;
48847;SDS011;36611;51.638;5.784;2023-02-28T02:50:03;2.47;;;1.85;;
48847;SDS011;36611;51.638;5.784;2023-02-28T02:52:34;2.05;;;1.33;;
48847;SDS011;36611;51.638;5.784;2023-02-28T02:55:06;1.33;;;1.10;;
48847;SDS011;36611;51.638;5.784;2023-02-28T02:57:43;1.95;;;1.48;;
48847;SDS011;36611;51.638;5.784;2023-02-28T03:00:15;1.58;;;1.48;;
48847;SDS011;36611;51.638;5.784;2023-02-28T03:02:46;1.55;;;1.45;;
48847;SDS011;36611;51.638;5.784;2023-02-28T03:05:19;1.83;;;1.50;;
48847;SDS011;36611;51.638;5.784;2023-02-28T03:07:49;1.25;;;1.15;;
48847;SDS011;36611;51.638;5.784;2023-02-28T03:16:01;2.03;;;1.40;;
48847;SDS011;36611;51.638;5.784;2023-02-28T03:24:42;1.60;;;1.40;;
48847;SDS011;36611;51.638;5.784;2023-02-28T03:27:11;1.73;;;1.35;;
48847;SDS011;36611;51.638;5.784;2023-02-28T03:29:48;1.60;;;1.33;;
48847;SDS011;36611;51.638;5.784;2023-02-28T03:35:10;1.63;;;1.30;;
48847;SDS011;36611;51.638;5.784;2023-02-28T03:37:49;1.63;;;1.30;;
48847;SDS011;36611;51.638;5.784;2023-02-28T03:40:20;2.17;;;1.40;;
48847;SDS011;36611;51.638;5.784;2023-02-28T03:42:52;1.20;;;1.10;;
48847;SDS011;36611;51.638;5.784;2023-02-28T03:45:24;1.63;;;1.40;;
48847;SDS011;36611;51.638;5.784;2023-02-28T03:50:45;1.45;;;1.30;;
48847;SDS011;36611;51.638;5.784;2023-02-28T03:53:25;2.05;;;1.40;;
48847;SDS011;36611;51.638;5.784;2023-02-28T03:55:55;1.20;;;1.10;;
48847;SDS011;36611;51.638;5.784;2023-02-28T04:01:54;1.60;;;1.42;;
48847;SDS011;36611;51.638;5.784;2023-02-28T04:04:21;1.90;;;1.23;;
48847;SDS011;36611;51.638;5.784;2023-02-28T04:06:51;1.13;;;1.00;;
48847;SDS011;36611;51.638;5.784;2023-02-28T04:09:19;1.38;;;1.27;;
48847;SDS011;36611;51.638;5.784;2023-02-28T04:11:48;1.55;;;1.20;;
48847;SDS011;36611;51.638;5.784;2023-02-28T04:14:18;1.77;;;1.13;;
48847;SDS011;36611;51.638;5.784;2023-02-28T04:16:44;1.55;;;1.30;;
48847;SDS011;36611;51.638;5.784;2023-02-28T04:19:12;1.52;;;1.15;;
48847;SDS011;36611;51.638;5.784;2023-02-28T04:21:40;1.85;;;1.40;;
48847;SDS011;36611;51.638;5.784;2023-02-28T04:24:09;1.40;;;1.13;;
48847;SDS011;36611;51.638;5.784;2023-02-28T04:26:41;1.65;;;1.10;;
48847;SDS011;36611;51.638;5.784;2023-02-28T04:29:11;1.15;;;1.05;;
48847;SDS011;36611;51.638;5.784;2023-02-28T04:31:39;1.35;;;1.10;;
48847;SDS011;36611;51.638;5.784;2023-02-28T04:34:06;1.80;;;1.40;;
48847;SDS011;36611;51.638;5.784;2023-02-28T04:36:33;1.40;;;1.00;;
48847;SDS011;36611;51.638;5.784;2023-02-28T04:38:59;1.70;;;1.20;;
48847;SDS011;36611;51.638;5.784;2023-02-28T04:41:26;1.23;;;1.13;;
48847;SDS011;36611;51.638;5.784;2023-02-28T04:43:57;1.10;;;1.00;;
48847;SDS011;36611;51.638;5.784;2023-02-28T04:46:24;1.42;;;1.20;;
48847;SDS011;36611;51.638;5.784;2023-02-28T04:48:50;1.38;;;1.15;;
48847;SDS011;36611;51.638;5.784;2023-02-28T04:51:18;1.15;;;1.05;;
48847;SDS011;36611;51.638;5.784;2023-02-28T04:53:46;1.50;;;1.20;;
48847;SDS011;36611;51.638;5.784;2023-02-28T04:56:13;1.58;;;1.35;;
48847;SDS011;36611;51.638;5.784;2023-02-28T04:58:41;1.52;;;1.00;;
48847;SDS011;36611;51.638;5.784;2023-02-28T05:01:17;1.45;;;1.25;;
48847;SDS011;36611;51.638;5.784;2023-02-28T05:03:48;1.48;;;1.17;;
48847;SDS011;36611;51.638;5.784;2023-02-28T05:06:16;1.40;;;1.08;;
48847;SDS011;36611;51.638;5.784;2023-02-28T05:08:43;1.52;;;1.10;;
48847;SDS011;36611;51.638;5.784;2023-02-28T05:11:14;1.65;;;1.10;;
48847;SDS011;36611;51.638;5.784;2023-02-28T05:13:46;2.25;;;1.27;;
48847;SDS011;36611;51.638;5.784;2023-02-28T05:16:13;1.10;;;1.00;;
48847;SDS011;36611;51.638;5.784;2023-02-28T05:18:40;1.27;;;1.00;;
48847;SDS011;36611;51.638;5.784;2023-02-28T05:21:17;1.15;;;1.00;;
48847;SDS011;36611;51.638;5.784;2023-02-28T05:23:50;1.48;;;1.10;;
48847;SDS011;36611;51.638;5.784;2023-02-28T05:26:16;1.40;;;0.90;;
48847;SDS011;36611;51.638;5.784;2023-02-28T05:28:43;1.23;;;1.10;;
48847;SDS011;36611;51.638;5.784;2023-02-28T05:31:10;2.25;;;1.05;;
48847;SDS011;36611;51.638;5.784;2023-02-28T05:33:37;1.48;;;1.05;;
48847;SDS011;36611;51.638;5.784;2023-02-28T05:36:04;1.65;;;1.10;;
48847;SDS011;36611;51.638;5.784;2023-02-28T05:38:30;1.02;;;0.82;;
48847;SDS011;36611;51.638;5.784;2023-02-28T05:40:57;1.67;;;1.20;;
48847;SDS011;36611;51.638;5.784;2023-02-28T05:43:24;1.30;;;1.00;;
48847;SDS011;36611;51.638;5.784;2023-02-28T05:45:50;1.90;;;0.90;;
48847;SDS011;36611;51.638;5.784;2023-02-28T05:48:17;1.20;;;0.80;;
48847;SDS011;36611;51.638;5.784;2023-02-28T05:50:44;1.48;;;0.85;;
48847;SDS011;36611;51.638;5.784;2023-02-28T05:53:12;1.10;;;1.00;;
48847;SDS011;36611;51.638;5.784;2023-02-28T05:55:38;1.67;;;0.95;;
48847;SDS011;36611;51.638;5.784;2023-02-28T05:58:07;1.20;;;1.10;;
48847;SDS011;36611;51.638;5.784;2023-02-28T06:00:34;1.30;;;1.10;;
48847;SDS011;36611;51.638;5.784;2023-02-28T06:03:01;1.63;;;1.13;;
48847;SDS011;36611;51.638;5.784;2023-02-28T06:05:28;0.95;;;0.70;;
48847;SDS011;36611;51.638;5.784;2023-02-28T06:07:54;1.48;;;0.85;;
48847;SDS011;36611;51.638;5.784;2023-02-28T06:10:21;1.05;;;0.95;;
48847;SDS011;36611;51.638;5.784;2023-02-28T06:12:48;1.02;;;0.90;;
48847;SDS011;36611;51.638;5.784;2023-02-28T06:15:14;1.00;;;0.73;;
48847;SDS011;36611;51.638;5.784;2023-02-28T06:17:43;0.98;;;0.85;;
48847;SDS011;36611;51.638;5.784;2023-02-28T06:20:11;1.00;;;0.80;;
48847;SDS011;36611;51.638;5.784;2023-02-28T06:22:39;1.55;;;1.10;;
48847;SDS011;36611;51.638;5.784;2023-02-28T06:25:06;1.15;;;0.90;;
48847;SDS011;36611;51.638;5.784;2023-02-28T06:27:33;1.48;;;0.90;;
48847;SDS011;36611;51.638;5.784;2023-02-28T06:30:00;1.23;;;1.00;;
48847;SDS011;36611;51.638;5.784;2023-02-28T06:32:26;1.33;;;0.90;;
48847;SDS011;36611;51.638;5.784;2023-02-28T06:34:53;2.55;;;1.20;;
48847;SDS011;36611;51.638;5.784;2023-02-28T06:37:19;1.08;;;0.95;;
48847;SDS011;36611;51.638;5.784;2023-02-28T06:39:46;1.30;;;1.13;;
48847;SDS011;36611;51.638;5.784;2023-02-28T06:42:13;1.67;;;1.00;;
48847;SDS011;36611;51.638;5.784;2023-02-28T06:44:39;1.40;;;0.90;;
48847;SDS011;36611;51.638;5.784;2023-02-28T06:47:06;2.38;;;0.90;;
48847;SDS011;36611;51.638;5.784;2023-02-28T06:49:33;1.55;;;0.90;;
48847;SDS011;36611;51.638;5.784;2023-02-28T06:52:01;1.33;;;0.90;;
48847;SDS011;36611;51.638;5.784;2023-02-28T06:54:28;1.48;;;1.00;;
48847;SDS011;36611;51.638;5.784;2023-02-28T06:56:55;1.67;;;1.05;;
48847;SDS011;36611;51.638;5.784;2023-02-28T06:59:24;1.60;;;0.75;;
48847;SDS011;36611;51.638;5.784;2023-02-28T07:01:50;2.63;;;1.10;;
48847;SDS011;36611;51.638;5.784;2023-02-28T07:04:17;1.88;;;0.90;;
48847;SDS011;36611;51.638;5.784;2023-02-28T07:06:43;2.10;;;1.00;;
48847;SDS011;36611;51.638;5.784;2023-02-28T07:09:10;1.35;;;0.90;;
48847;SDS011;36611;51.638;5.784;2023-02-28T07:11:36;1.17;;;0.85;;
48847;SDS011;36611;51.638;5.784;2023-02-28T07:14:03;1.10;;;0.90;;
48847;SDS011;36611;51.638;5.784;2023-02-28T07:16:30;3.95;;;1.05;;
48847;SDS011;36611;51.638;5.784;2023-02-28T07:18:56;1.35;;;0.93;;
48847;SDS011;36611;51.638;5.784;2023-02-28T07:21:23;2.63;;;0.80;;
48847;SDS011;36611;51.638;5.784;2023-02-28T07:23:50;1.35;;;0.95;;
48847;SDS011;36611;51.638;5.784;2023-02-28T07:26:17;1.63;;;1.13;;
48847;SDS011;36611;51.638;5.784;2023-02-28T07:28:46;1.23;;;1.00;;
48847;SDS011;36611;51.638;5.784;2023-02-28T07:31:14;1.52;;;1.00;;
48847;SDS011;36611;51.638;5.784;2023-02-28T07:33:41;1.27;;;1.00;;
48847;SDS011;36611;51.638;5.784;2023-02-28T07:36:08;1.67;;;0.90;;
48847;SDS011;36611;51.638;5.784;2023-02-28T07:38:42;1.42;;;0.90;;
48847;SDS011;36611;51.638;5.784;2023-02-28T07:41:14;1.30;;;0.85;;
48847;SDS011;36611;51.638;5.784;2023-02-28T07:43:42;1.40;;;0.80;;
48847;SDS011;36611;51.638;5.784;2023-02-28T07:46:09;1.20;;;0.80;;
48847;SDS011;36611;51.638;5.784;2023-02-28T07:48:37;0.82;;;0.75;;
48847;SDS011;36611;51.638;5.784;2023-02-28T07:51:03;0.80;;;0.70;;
48847;SDS011;36611;51.638;5.784;2023-02-28T07:53:30;0.75;;;0.75;;
48847;SDS011;36611;51.638;5.784;2023-02-28T07:55:57;1.80;;;0.93;;
48847;SDS011;36611;51.638;5.784;2023-02-28T07:58:27;1.25;;;0.90;;
48847;SDS011;36611;51.638;5.784;2023-02-28T08:00:55;1.40;;;1.00;;
48847;SDS011;36611;51.638;5.784;2023-02-28T08:03:22;1.20;;;0.80;;
48847;SDS011;36611;51.638;5.784;2023-02-28T08:05:49;1.30;;;0.90;;
48847;SDS011;36611;51.638;5.784;2023-02-28T08:08:17;1.45;;;1.00;;
48847;SDS011;36611;51.638;5.784;2023-02-28T08:10:44;1.13;;;0.75;;
48847;SDS011;36611;51.638;5.784;2023-02-28T08:13:10;1.25;;;0.90;;
48847;SDS011;36611;51.638;5.784;2023-02-28T08:15:37;3.40;;;1.00;;
48847;SDS011;36611;51.638;5.784;2023-02-28T08:18:04;2.25;;;1.05;;
48847;SDS011;36611;51.638;5.784;2023-02-28T08:20:30;2.60;;;0.80;;
48847;SDS011;36611;51.638;5.784;2023-02-28T08:22:57;1.55;;;0.90;;
48847;SDS011;36611;51.638;5.784;2023-02-28T08:25:23;2.78;;;0.98;;
48847;SDS011;36611;51.638;5.784;2023-02-28T08:27:51;0.70;;;0.70;;
48847;SDS011;36611;51.638;5.784;2023-02-28T08:30:18;2.97;;;1.10;;
48847;SDS011;36611;51.638;5.784;2023-02-28T08:32:45;2.78;;;1.05;;
48847;SDS011;36611;51.638;5.784;2023-02-28T08:35:11;2.28;;;1.27;;
48847;SDS011;36611;51.638;5.784;2023-02-28T08:37:38;3.13;;;1.15;;
48847;SDS011;36611;51.638;5.784;2023-02-28T08:40:04;4.28;;;1.17;;
48847;SDS011;36611;51.638;5.784;2023-02-28T08:42:32;3.03;;;1.42;;
48847;SDS011;36611;51.638;5.784;2023-02-28T08:44:59;2.03;;;0.90;;
48847;SDS011;36611;51.638;5.784;2023-02-28T08:47:25;3.33;;;1.17;;
48847;SDS011;36611;51.638;5.784;2023-02-28T08:49:52;2.70;;;1.25;;
48847;SDS011;36611;51.638;5.784;2023-02-28T08:52:18;2.17;;;1.10;;
48847;SDS011;36611;51.638;5.784;2023-02-28T08:54:45;1.27;;;0.80;;
48847;SDS011;36611;51.638;5.784;2023-02-28T08:57:11;1.50;;;0.77;;
48847;SDS011;36611;51.638;5.784;2023-02-28T08:59:38;3.03;;;1.00;;
48847;SDS011;36611;51.638;5.784;2023-02-28T09:02:04;2.70;;;0.95;;
48847;SDS011;36611;51.638;5.784;2023-02-28T09:04:31;1.73;;;0.70;;
48847;SDS011;36611;51.638;5.784;2023-02-28T09:06:57;1.90;;;0.93;;
48847;SDS011;36611;51.638;5.784;2023-02-28T09:09:24;1.98;;;0.80;;
48847;SDS011;36611;51.638;5.784;2023-02-28T09:11:50;2.38;;;0.90;;
48847;SDS011;36611;51.638;5.784;2023-02-28T09:14:17;1.63;;;0.75;;
48847;SDS011;36611;51.638;5.784;2023-02-28T09:16:43;2.30;;;0.80;;
48847;SDS011;36611;51.638;5.784;2023-02-28T09:19:11;2.35;;;1.00;;
48847;SDS011;36611;51.638;5.784;2023-02-28T09:21:38;1.45;;;0.80;;
48847;SDS011;36611;51.638;5.784;2023-02-28T09:24:05;1.48;;;0.98;;
48847;SDS011;36611;51.638;5.784;2023-02-28T09:26:32;2.70;;;0.70;;
48847;SDS011;36611;51.638;5.784;2023-02-28T09:29:08;1.60;;;0.70;;
48847;SDS011;36611;51.638;5.784;2023-02-28T09:31:35;2.05;;;0.80;;
48847;SDS011;36611;51.638;5.784;2023-02-28T09:34:01;1.60;;;0.65;;
48847;SDS011;36611;51.638;5.784;2023-02-28T09:36:30;1.15;;;0.70;;
48847;SDS011;36611;51.638;5.784;2023-02-28T09:39:09;1.63;;;0.80;;
48847;SDS011;36611;51.638;5.784;2023-02-28T09:41:37;1.55;;;0.82;;
48847;SDS011;36611;51.638;5.784;2023-02-28T09:44:15;2.83;;;0.60;;
48847;SDS011;36611;51.638;5.784;2023-02-28T09:47:13;0.93;;;0.77;;
48847;SDS011;36611;51.638;5.784;2023-02-28T09:49:45;1.08;;;0.60;;
48847;SDS011;36611;51.638;5.784;2023-02-28T09:52:18;2.78;;;0.60;;
48847;SDS011;36611;51.638;5.784;2023-02-28T09:54:47;1.67;;;1.00;;
48847;SDS011;36611;51.638;5.784;2023-02-28T09:57:25;1.30;;;0.90;;
48847;SDS011;36611;51.638;5.784;2023-02-28T10:02:50;1.10;;;0.77;;
48847;SDS011;36611;51.638;5.784;2023-02-28T10:05:33;1.85;;;0.55;;
48847;SDS011;36611;51.638;5.784;2023-02-28T10:08:14;1.23;;;0.77;;
48847;SDS011;36611;51.638;5.784;2023-02-28T10:10:45;2.85;;;0.80;;
48847;SDS011;36611;51.638;5.784;2023-02-28T10:13:17;1.27;;;0.55;;
48847;SDS011;36611;51.638;5.784;2023-02-28T10:15:51;1.50;;;0.80;;
48847;SDS011;36611;51.638;5.784;2023-02-28T10:18:24;0.90;;;0.70;;
48847;SDS011;36611;51.638;5.784;2023-02-28T10:20:56;0.95;;;0.57;;
48847;SDS011;36611;51.638;5.784;2023-02-28T10:23:28;2.30;;;0.85;;
48847;SDS011;36611;51.638;5.784;2023-02-28T10:26:05;1.02;;;0.77;;
48847;SDS011;36611;51.638;5.784;2023-02-28T10:28:38;1.48;;;0.50;;
48847;SDS011;36611;51.638;5.784;2023-02-28T10:31:05;1.00;;;0.68;;
48847;SDS011;36611;51.638;5.784;2023-02-28T10:33:37;0.90;;;0.65;;
48847;SDS011;36611;51.638;5.784;2023-02-28T10:36:04;1.00;;;0.70;;
48847;SDS011;36611;51.638;5.784;2023-02-28T10:38:34;1.00;;;0.60;;
48847;SDS011;36611;51.638;5.784;2023-02-28T10:41:03;1.05;;;0.50;;
48847;SDS011;36611;51.638;5.784;2023-02-28T10:43:29;0.80;;;0.40;;
48847;SDS011;36611;51.638;5.784;2023-02-28T10:45:57;1.27;;;0.60;;
48847;SDS011;36611;51.638;5.784;2023-02-28T10:50:54;0.80;;;0.50;;
48847;SDS011;36611;51.638;5.784;2023-02-28T10:56:03;3.17;;;0.63;;
48847;SDS011;36611;51.638;5.784;2023-02-28T11:01:43;1.23;;;0.60;;
48847;SDS011;36611;51.638;5.784;2023-02-28T11:06:48;1.02;;;0.50;;
48847;SDS011;36611;51.638;5.784;2023-02-28T11:09:28;0.65;;;0.40;;
48847;SDS011;36611;51.638;5.784;2023-02-28T11:11:58;0.60;;;0.47;;
48847;SDS011;36611;51.638;5.784;2023-02-28T11:14:27;1.02;;;0.50;;
48847;SDS011;36611;51.638;5.784;2023-02-28T11:17:11;0.93;;;0.50;;
48847;SDS011;36611;51.638;5.784;2023-02-28T11:19:44;0.47;;;0.40;;
48847;SDS011;36611;51.638;5.784;2023-02-28T11:22:24;0.90;;;0.45;;
48847;SDS011;36611;51.638;5.784;2023-02-28T11:24:55;0.50;;;0.40;;
48847;SDS011;36611;51.638;5.784;2023-02-28T11:30:00;1.43;;;0.83;;
48847;SDS011;36611;51.638;5.784;2023-02-28T11:32:30;3.97;;;0.52;;
48847;SDS011;36611;51.638;5.784;2023-02-28T11:35:03;0.85;;;0.50;;
48847;SDS011;36611;51.638;5.784;2023-02-28T11:37:40;1.02;;;0.40;;
48847;SDS011;36611;51.638;5.784;2023-02-28T11:40:13;1.27;;;0.60;;
48847;SDS011;36611;51.638;5.784;2023-02-28T17:45:37;2.15;;;0.60;;
48847;SDS011;36611;51.638;5.784;2023-02-28T17:48:04;1.73;;;0.70;;
48847;SDS011;36611;51.638;5.784;2023-02-28T17:50:31;2.05;;;0.90;;
48847;SDS011;36611;51.638;5.784;2023-02-28T17:52:59;1.95;;;0.80;;
48847;SDS011;36611;51.638;5.784;2023-02-28T17:55:25;1.48;;;0.80;;
48847;SDS011;36611;51.638;5.784;2023-02-28T17:57:52;2.28;;;0.80;;
48847;SDS011;36611;51.638;5.784;2023-02-28T18:00:19;1.52;;;0.60;;
48847;SDS011;36611;51.638;5.784;2023-02-28T18:02:46;1.15;;;0.45;;
48847;SDS011;36611;51.638;5.784;2023-02-28T18:05:13;1.30;;;0.52;;
48847;SDS011;36611;51.638;5.784;2023-02-28T18:07:40;1.45;;;0.60;;
48847;SDS011;36611;51.638;5.784;2023-02-28T18:10:11;3.22;;;0.70;;
48847;SDS011;36611;51.638;5.784;2023-02-28T18:12:46;1.25;;;0.63;;
48847;SDS011;36611;51.638;5.784;2023-02-28T18:15:15;1.00;;;0.50;;
48847;SDS011;36611;51.638;5.784;2023-02-28T18:17:43;2.65;;;0.70;;
48847;SDS011;36611;51.638;5.784;2023-02-28T18:20:09;2.63;;;0.88;;
48847;SDS011;36611;51.638;5.784;2023-02-28T18:22:37;1.65;;;0.70;;
48847;SDS011;36611;51.638;5.784;2023-02-28T18:25:05;0.82;;;0.52;;
48847;SDS011;36611;51.638;5.784;2023-02-28T18:27:34;2.35;;;0.70;;
48847;SDS011;36611;51.638;5.784;2023-02-28T18:30:02;0.80;;;0.45;;
48847;SDS011;36611;51.638;5.784;2023-02-28T18:32:30;1.98;;;0.63;;
48847;SDS011;36611;51.638;5.784;2023-02-28T18:34:57;1.38;;;0.82;;
48847;SDS011;36611;51.638;5.784;2023-02-28T18:37:23;1.48;;;0.63;;
48847;SDS011;36611;51.638;5.784;2023-02-28T18:39:50;4.47;;;0.60;;
48847;SDS011;36611;51.638;5.784;2023-02-28T18:42:17;3.28;;;0.80;;
48847;SDS011;36611;51.638;5.784;2023-02-28T18:44:43;1.38;;;0.68;;
48847;SDS011;36611;51.638;5.784;2023-02-28T18:47:10;1.48;;;0.60;;
48847;SDS011;36611;51.638;5.784;2023-02-28T18:49:37;2.55;;;0.70;;
48847;SDS011;36611;51.638;5.784;2023-02-28T18:52:03;2.35;;;0.60;;
48847;SDS011;36611;51.638;5.784;2023-02-28T18:54:30;1.75;;;0.60;;
48847;SDS011;36611;51.638;5.784;2023-02-28T18:56:57;1.20;;;0.60;;
48847;SDS011;36611;51.638;5.784;2023-02-28T18:59:24;3.63;;;0.85;;
48847;SDS011;36611;51.638;5.784;2023-02-28T19:01:51;1.55;;;0.60;;
48847;SDS011;36611;51.638;5.784;2023-02-28T19:04:17;1.33;;;0.82;;
48847;SDS011;36611;51.638;5.784;2023-02-28T19:06:44;2.47;;;0.80;;
48847;SDS011;36611;51.638;5.784;2023-02-28T19:09:12;2.08;;;0.75;;
48847;SDS011;36611;51.638;5.784;2023-02-28T19:11:39;2.63;;;1.00;;
48847;SDS011;36611;51.638;5.784;2023-02-28T19:14:05;1.95;;;0.73;;
48847;SDS011;36611;51.638;5.784;2023-02-28T19:16:33;2.38;;;0.80;;
48847;SDS011;36611;51.638;5.784;2023-02-28T19:19:00;3.80;;;1.23;;
48847;SDS011;36611;51.638;5.784;2023-02-28T19:21:26;3.35;;;1.05;;
48847;SDS011;36611;51.638;5.784;2023-02-28T19:23:53;3.47;;;0.90;;
48847;SDS011;36611;51.638;5.784;2023-02-28T19:26:23;2.10;;;1.20;;
48847;SDS011;36611;51.638;5.784;2023-02-28T19:28:51;2.28;;;1.05;;
48847;SDS011;36611;51.638;5.784;2023-02-28T19:31:20;2.88;;;1.00;;
48847;SDS011;36611;51.638;5.784;2023-02-28T19:33:48;2.80;;;1.27;;
48847;SDS011;36611;51.638;5.784;2023-02-28T19:36:18;2.60;;;1.20;;
48847;SDS011;36611;51.638;5.784;2023-02-28T19:38:45;6.55;;;1.20;;
48847;SDS011;36611;51.638;5.784;2023-02-28T19:41:13;1.83;;;1.13;;
48847;SDS011;36611;51.638;5.784;2023-02-28T19:43:40;2.70;;;0.95;;
48847;SDS011;36611;51.638;5.784;2023-02-28T19:46:07;3.38;;;0.90;;
48847;SDS011;36611;51.638;5.784;2023-02-28T19:48:35;1.55;;;1.00;;
48847;SDS011;36611;51.638;5.784;2023-02-28T19:51:03;2.60;;;1.15;;
48847;SDS011;36611;51.638;5.784;2023-02-28T19:53:33;2.38;;;0.90;;
48847;SDS011;36611;51.638;5.784;2023-02-28T19:56:03;4.68;;;1.17;;
48847;SDS011;36611;51.638;5.784;2023-02-28T19:58:31;1.65;;;0.95;;
48847;SDS011;36611;51.638;5.784;2023-02-28T20:00:58;1.58;;;0.90;;
48847;SDS011;36611;51.638;5.784;2023-02-28T20:03:26;1.88;;;1.35;;
48847;SDS011;36611;51.638;5.784;2023-02-28T20:06:01;2.13;;;1.02;;
48847;SDS011;36611;51.638;5.784;2023-02-28T20:08:32;2.63;;;0.90;;
48847;SDS011;36611;51.638;5.784;2023-02-28T20:11:03;3.75;;;0.98;;
48847;SDS011;36611;51.638;5.784;2023-02-28T20:13:34;1.75;;;0.95;;
48847;SDS011;36611;51.638;5.784;2023-02-28T20:16:02;1.58;;;1.00;;
48847;SDS011;36611;51.638;5.784;2023-02-28T20:18:32;3.38;;;1.17;;
48847;SDS011;36611;51.638;5.784;2023-02-28T20:20:59;2.38;;;1.05;;
48847;SDS011;36611;51.638;5.784;2023-02-28T20:23:27;2.78;;;1.10;;
48847;SDS011;36611;51.638;5.784;2023-02-28T20:25:56;2.45;;;1.17;;
48847;SDS011;36611;51.638;5.784;2023-02-28T20:28:24;2.47;;;1.38;;
48847;SDS011;36611;51.638;5.784;2023-02-28T20:30:50;1.45;;;0.90;;
48847;SDS011;36611;51.638;5.784;2023-02-28T20:33:17;1.65;;;0.90;;
48847;SDS011;36611;51.638;5.784;2023-02-28T20:35:44;1.33;;;1.00;;
48847;SDS011;36611;51.638;5.784;2023-02-28T20:38:11;1.98;;;1.00;;
48847;SDS011;36611;51.638;5.784;2023-02-28T20:40:38;4.30;;;1.20;;
48847;SDS011;36611;51.638;5.784;2023-02-28T20:43:04;1.60;;;1.00;;
48847;SDS011;36611;51.638;5.784;2023-02-28T20:45:31;1.52;;;1.10;;
48847;SDS011;36611;51.638;5.784;2023-02-28T20:47:58;1.55;;;1.15;;
48847;SDS011;36611;51.638;5.784;2023-02-28T20:50:26;1.52;;;1.00;;
48847;SDS011;36611;51.638;5.784;2023-02-28T20:52:52;4.63;;;1.30;;
48847;SDS011;36611;51.638;5.784;2023-02-28T20:55:19;3.03;;;1.67;;
48847;SDS011;36611;51.638;5.784;2023-02-28T20:57:45;2.40;;;1.02;;
48847;SDS011;36611;51.638;5.784;2023-02-28T21:00:12;1.77;;;0.98;;
48847;SDS011;36611;51.638;5.784;2023-02-28T21:02:41;1.98;;;1.15;;
48847;SDS011;36611;51.638;5.784;2023-02-28T21:05:08;2.13;;;1.15;;
48847;SDS011;36611;51.638;5.784;2023-02-28T21:07:34;3.20;;;0.98;;
48847;SDS011;36611;51.638;5.784;2023-02-28T21:10:01;1.33;;;1.10;;
48847;SDS011;36611;51.638;5.784;2023-02-28T21:12:28;1.55;;;1.08;;
48847;SDS011;36611;51.638;5.784;2023-02-28T21:14:54;2.92;;;1.10;;
48847;SDS011;36611;51.638;5.784;2023-02-28T21:17:21;1.77;;;1.15;;
48847;SDS011;36611;51.638;5.784;2023-02-28T21:19:48;2.20;;;1.00;;
48847;SDS011;36611;51.638;5.784;2023-02-28T21:22:14;3.33;;;1.45;;
48847;SDS011;36611;51.638;5.784;2023-02-28T21:24:41;2.40;;;1.42;;
48847;SDS011;36611;51.638;5.784;2023-02-28T21:27:09;2.50;;;1.27;;
48847;SDS011;36611;51.638;5.784;2023-02-28T21:29:36;1.17;;;0.90;;
48847;SDS011;36611;51.638;5.784;2023-02-28T21:32:03;1.30;;;0.90;;
48847;SDS011;36611;51.638;5.784;2023-02-28T21:34:31;3.00;;;1.10;;
48847;SDS011;36611;51.638;5.784;2023-02-28T21:36:58;1.77;;;1.08;;
48847;SDS011;36611;51.638;5.784;2023-02-28T21:39:25;1.88;;;1.33;;
48847;SDS011;36611;51.638;5.784;2023-02-28T21:41:54;2.00;;;1.10;;
48847;SDS011;36611;51.638;5.784;2023-02-28T21:44:22;1.95;;;1.10;;
48847;SDS011;36611;51.638;5.784;2023-02-28T21:46:49;1.90;;;1.00;;
48847;SDS011;36611;51.638;5.784;2023-02-28T21:49:20;1.48;;;0.95;;
48847;SDS011;36611;51.638;5.784;2023-02-28T21:51:46;1.90;;;1.05;;
48847;SDS011;36611;51.638;5.784;2023-02-28T21:54:13;1.20;;;0.90;;